Flight Track Log - Related Links

Times and Time Zones

All times are in EDT time to prevent confusion due to time zone crossing. See the TAM3827 flight status page for this flight to view local times or setup timezone preferences in your user account.

Time Position Orientation Groundspeed Altitude Reporting Facility
EDT Latitude Longitude Course Direction KTS MPH feet Rate Location/Type
Fri 12:41:35 PM -15.8800 -47.9330 180° South 100 115  Level FlightAware ADS-B
Fri 12:42:00 PM -15.8800 -47.9230 90° East 100 115 5,500 Level FlightAware ADS-B
Fri 12:42:23 PM -15.8780 -47.8920 86° East 176 203 4,400 5,695 Climbing FlightAware ADS-B
Fri 12:42:59 PM -15.8840 -47.8630 102° East 174 200 5,600 2,087 Climbing FlightAware ADS-B
Fri 12:43:09 PM -15.8910 -47.8600 158° South 179 206 6,000 1,200 Climbing FlightAware ADS-B
Fri 12:43:29 PM -15.9080 -47.8580 174° South 201 231 6,200 714 Climbing FlightAware ADS-B
Fri 12:43:51 PM -15.9310 -47.8560 175° South 229 264 6,500 1,000 Climbing FlightAware ADS-B
Fri 12:44:11 PM -15.9530 -47.8480 161° South 259 298 6,900 1,350 Climbing FlightAware ADS-B
Fri 12:44:31 PM -15.9760 -47.8370 155° Southeast 280 322 7,400 2,118 Climbing FlightAware ADS-B
Fri 12:44:45 PM -15.9930 -47.8300 158° South 281 323 8,100 2,833 Climbing FlightAware ADS-B
Fri 12:45:07 PM -16.0200 -47.8180 157° South 282 325 9,100 2,286 Climbing FlightAware ADS-B
Fri 12:45:27 PM -16.0440 -47.8070 156° South 297 342 9,700 1,655 Climbing FlightAware ADS-B
Fri 12:46:05 PM -16.0950 -47.7860 158° South 325 374 10,700 1,352 Climbing FlightAware ADS-B
Fri 12:46:38 PM -16.1440 -47.7650 158° South 354 407 11,300 1,840 Climbing FlightAware ADS-B
Fri 12:47:20 PM -16.2080 -47.7370 157° South 358 412 13,000 1,535 Climbing FlightAware ADS-B
Fri 12:48:04 PM -16.2640 -47.7120 157° South 360 414 13,500 1,341 Climbing FlightAware ADS-B
Fri 12:48:45 PM -16.3280 -47.6850 158° South 370 426 14,900 1,756 Climbing FlightAware ADS-B
Fri 12:49:26 PM -16.3810 -47.6510 148° Southeast 370 426 15,900 769 Climbing FlightAware ADS-B
Fri 12:50:03 PM -16.4300 -47.6290 157° South 370 426 15,900  Level FlightAware ADS-B
Fri 12:50:39 PM -16.4790 -47.6080 158° South 370 426 15,900  Level FlightAware ADS-B
Fri 12:51:13 PM -16.5240 -47.5880 157° South 370 426 15,900  Level FlightAware ADS-B
Fri 12:51:50 PM -16.5740 -47.5660 157° South 370 426 15,900  Level FlightAware ADS-B
Fri 12:52:27 PM -16.6230 -47.5440 157° South 370 426 15,900 1,954 Level FlightAware ADS-B
Fri 12:55:00 PM -16.8441 -47.3968 147° Southeast  Level Estimated
Fri 12:56:00 PM -16.9308 -47.3390 147° Southeast  Level Estimated
Fri 12:57:00 PM -17.0174 -47.2811 147° Southeast  Level Estimated
Fri 12:58:00 PM -17.1041 -47.2232 147° Southeast  Level Estimated
Fri 12:59:00 PM -17.1907 -47.1652 147° Southeast  Level Estimated
Fri 12:59:09 PM -17.2640 -46.8280 147° Southeast 461 531 30,200  Level FlightAware ADS-B
Fri 12:59:41 PM -17.3140 -46.7820 139° Southeast 464 534 30,700 1,000 Climbing FlightAware ADS-B
Fri 01:00:15 PM -17.3730 -46.7280 139° Southeast 465 535 31,300 1,378 Climbing FlightAware ADS-B
Fri 01:00:55 PM -17.4370 -46.6700 139° Southeast 457 526 32,400 1,059 Climbing FlightAware ADS-B
Fri 01:01:40 PM -17.5000 -46.6110 138° Southeast 454 522 32,800 1,059 Climbing FlightAware ADS-B
Fri 01:02:03 PM -17.5440 -46.5730 141° Southeast 588 677 33,600 1,000 Climbing FlightAware ADS-B
Fri 01:04:00 PM -17.7174 -46.4673 150° Southeast  Level Estimated
Fri 01:04:28 PM -17.7940 -46.4170 150° Southeast 425 489 35,600  Level FlightAware ADS-B
Fri 01:05:05 PM -17.8430 -46.3870 150° Southeast 423 487 35,700 675 Climbing FlightAware ADS-B
Fri 01:05:48 PM -17.8040 -46.4110 330° Northwest 426 490 36,500 822 Climbing FlightAware ADS-B
Fri 01:06:18 PM -17.9800 -46.3050 150° Southeast 428 493 36,700 369 Climbing FlightAware ADS-B
Fri 01:06:53 PM -18.0380 -46.2710 151° Southeast 432 497 36,900 152 Climbing FlightAware ADS-B
Fri 01:07:37 PM -18.1030 -46.2310 150° Southeast 433 498 36,900 65 Level FlightAware ADS-B
Fri 01:08:25 PM -18.0850 -46.2420 330° Northwest 435 501 37,000 65 Climbing FlightAware ADS-B
Fri 01:09:09 PM -18.2720 -46.1300 150° Southeast 432 497 37,000  Level FlightAware ADS-B
Fri 01:09:49 PM -18.3310 -46.0940 150° Southeast 432 497 37,000  Level FlightAware ADS-B
Fri 01:10:26 PM -18.3850 -46.0610 150° Southeast 432 497 37,000  Level FlightAware ADS-B
Fri 01:10:38 PM -18.0450 -46.2660 330° Northwest 37,000  Level FlightAware ADS-B
Fri 01:11:13 PM -18.4890 -45.9980 150° Southeast 432 497 37,000  Level FlightAware ADS-B
Fri 01:11:51 PM -18.5540 -45.9590 150° Southeast 433 498 37,000  Level FlightAware ADS-B
Fri 01:12:31 PM -18.6320 -45.9120 150° Southeast 433 498 37,000  Level FlightAware ADS-B
Fri 01:13:09 PM -18.6980 -45.8720 150° Southeast 434 499 37,000  Level FlightAware ADS-B
Fri 01:13:39 PM -18.7430 -45.8450 150° Southeast 434 499 37,000  Level FlightAware ADS-B
Fri 01:14:24 PM -18.8250 -45.7950 150° Southeast 434 499 37,000  Level FlightAware ADS-B
Fri 01:14:59 PM -18.8870 -45.7570 150° Southeast 435 501 37,000  Level FlightAware ADS-B
Fri 01:15:35 PM -18.9480 -45.7200 150° Southeast 434 499 37,000  Level FlightAware ADS-B
Fri 01:16:21 PM -19.0150 -45.6790 150° Southeast 433 498 37,000  Level FlightAware ADS-B
Fri 01:16:53 PM -19.0670 -45.6480 151° Southeast 433 498 37,000  Level FlightAware ADS-B
Fri 01:17:34 PM -19.1550 -45.5940 150° Southeast 432 497 37,000  Level FlightAware ADS-B
Fri 01:18:05 PM -19.2000 -45.5660 150° Southeast 431 496 37,000  Level FlightAware ADS-B
Fri 01:18:44 PM -19.2800 -45.5170 150° Southeast 430 495 37,000  Level FlightAware ADS-B
Fri 01:19:18 PM -19.3370 -45.4820 150° Southeast 429 494 37,000  Level FlightAware ADS-B
Fri 01:19:53 PM -19.3920 -45.4490 150° Southeast 429 494 37,000  Level FlightAware ADS-B
Fri 01:20:28 PM -19.4530 -45.4110 150° Southeast 429 494 37,000  Level FlightAware ADS-B
Fri 01:21:03 PM -19.5170 -45.3720 150° Southeast 429 494 37,000  Level FlightAware ADS-B
Fri 01:21:39 PM -19.5780 -45.3340 150° Southeast 430 495 37,000  Level FlightAware ADS-B
Fri 01:22:13 PM -19.6370 -45.2980 150° Southeast 430 495 37,000  Level FlightAware ADS-B
Fri 01:22:50 PM -19.6910 -45.2640 149° Southeast 431 496 37,000  Level FlightAware ADS-B
Fri 01:23:27 PM -19.7620 -45.2200 150° Southeast 431 496 37,000  Level FlightAware ADS-B
Fri 01:24:02 PM -19.8240 -45.1810 149° Southeast 431 496 37,000  Level FlightAware ADS-B
Fri 01:24:37 PM -19.8860 -45.1430 150° Southeast 430 495 37,000  Level FlightAware ADS-B
Fri 01:25:18 PM -19.9530 -45.1000 149° Southeast 430 495 37,000  Level FlightAware ADS-B
Fri 01:25:48 PM -20.0060 -45.0670 150° Southeast 430 495 37,000  Level FlightAware ADS-B
Fri 01:26:29 PM -20.0690 -45.0280 150° Southeast 430 495 37,000  Level FlightAware ADS-B
Fri 01:26:54 PM -20.1070 -45.0050 150° Southeast 429 494 37,000  Level FlightAware ADS-B
Fri 01:27:34 PM -20.1700 -44.9650 149° Southeast 430 495 37,000  Level FlightAware ADS-B
Fri 01:28:12 PM -20.2480 -44.9160 149° Southeast 431 496 37,000  Level FlightAware ADS-B
Fri 01:28:53 PM -20.3240 -44.8680 149° Southeast 432 497 37,000  Level FlightAware ADS-B
Fri 01:29:32 PM -20.3910 -44.8260 150° Southeast 434 499 37,000  Level FlightAware ADS-B
Fri 01:30:02 PM -20.4440 -44.7930 150° Southeast 435 501 37,000  Level FlightAware ADS-B
Fri 01:30:42 PM -20.5130 -44.7500 150° Southeast 435 501 37,000  Level FlightAware ADS-B
Fri 01:31:12 PM -20.5630 -44.7180 149° Southeast 435 501 37,000  Level FlightAware ADS-B
Fri 01:31:52 PM -20.6350 -44.6720 149° Southeast 436 502 37,000  Level FlightAware ADS-B
Fri 01:32:23 PM -20.6890 -44.6380 150° Southeast 436 502 37,000  Level FlightAware ADS-B
Fri 01:33:03 PM -20.7550 -44.5960 149° Southeast 437 503 37,000  Level FlightAware ADS-B
Fri 01:33:43 PM -20.8300 -44.5490 150° Southeast 437 503 37,000  Level FlightAware ADS-B
Fri 01:34:18 PM -20.8880 -44.5120 149° Southeast 438 504 37,000  Level FlightAware ADS-B
Fri 01:34:53 PM -20.9500 -44.4730 150° Southeast 438 504 37,000  Level FlightAware ADS-B
Fri 01:35:25 PM -20.9940 -44.4440 148° Southeast 437 503 37,000  Level FlightAware ADS-B
Fri 01:36:03 PM -21.0560 -44.4060 150° Southeast 438 504 37,000 -1,775 Level FlightAware ADS-B
Fri 01:36:36 PM -21.1330 -44.3570 149° Southeast 453 521 34,900 -3,706 Descending FlightAware ADS-B
Fri 01:37:11 PM -21.1950 -44.3180 150° Southeast 464 534 32,800 -3,000 Descending FlightAware ADS-B
Fri 01:37:46 PM -21.2590 -44.2770 149° Southeast 453 521 31,400 -1,833 Descending FlightAware ADS-B
Fri 01:38:23 PM -21.3000 -44.2500 148° Southeast 448 516 30,600 -1,881 Descending FlightAware ADS-B
Fri 01:38:53 PM -21.3580 -44.2130 149° Southeast 438 504 29,300 -2,294 Descending FlightAware ADS-B
Fri 01:39:31 PM -21.4240 -44.1700 149° Southeast 429 494 28,000 -2,091 Descending FlightAware ADS-B
Fri 01:39:59 PM -21.4710 -44.1400 149° Southeast 422 486 27,000 -2,000 Descending FlightAware ADS-B
Fri 01:40:40 PM -21.5370 -44.0970 149° Southeast 412 474 25,700 -1,973 Descending FlightAware ADS-B
Fri 01:41:12 PM -21.5910 -44.0620 149° Southeast 409 471 24,600 -2,032 Descending FlightAware ADS-B
Fri 01:41:42 PM -21.6380 -44.0320 149° Southeast 407 468 23,600 -1,931 Descending FlightAware ADS-B
Fri 01:42:39 PM -21.7280 -43.9730 149° Southeast 401 461 21,800 -1,888 Descending FlightAware ADS-B
Fri 01:43:11 PM -21.7810 -43.9390 149° Southeast 398 458 20,800 -1,737 Descending FlightAware ADS-B
Fri 01:43:55 PM -21.8450 -43.8970 149° Southeast 392 451 19,600 -1,692 Descending FlightAware ADS-B
Fri 01:44:29 PM -21.9000 -43.8610 149° Southeast 386 444 18,600 -1,690 Descending FlightAware ADS-B
Fri 01:45:06 PM -21.9560 -43.8240 149° Southeast 381 438 17,600 -1,636 Descending FlightAware ADS-B
Fri 01:45:46 PM -22.0180 -43.7840 149° Southeast 376 433 16,500 -1,622 Descending FlightAware ADS-B
Fri 01:46:20 PM -22.0670 -43.7520 149° Southeast 372 428 15,600 -1,629 Descending FlightAware ADS-B
Fri 01:46:56 PM -22.1210 -43.7170 149° Southeast 369 425 14,600 -1,652 Descending FlightAware ADS-B
Fri 01:47:29 PM -22.1670 -43.6870 149° Southeast 366 421 13,700 -1,114 Descending FlightAware ADS-B
Fri 01:48:06 PM -22.2180 -43.6540 149° Southeast 343 395 13,300 -649 Descending FlightAware ADS-B
Fri 01:48:43 PM -22.2620 -43.6250 149° Southeast 323 372 12,900 -608 Descending FlightAware ADS-B
Fri 01:49:25 PM -22.3110 -43.5920 148° Southeast 296 341 12,500 -740 Descending FlightAware ADS-B
Fri 01:49:56 PM -22.3490 -43.5670 149° Southeast 282 325 12,000 -1,167 Descending FlightAware ADS-B
Fri 01:50:37 PM -22.3970 -43.5430 155° Southeast 279 321 11,100 -1,279 Descending FlightAware ADS-B
Fri 01:50:57 PM -22.4260 -43.5510 194° South 273 314 10,700 -1,245 Descending FlightAware ADS-B
Fri 01:51:30 PM -22.4650 -43.5640 197° South 272 313 10,000 -1,364 Descending FlightAware ADS-B
Fri 01:52:03 PM -22.5060 -43.5780 198° South 274 315 9,200 -1,347 Descending FlightAware ADS-B
Fri 01:52:19 PM -22.5280 -43.5850 196° South 272 313 8,900 -750 Descending FlightAware ADS-B
Fri 01:52:43 PM -22.5560 -43.5950 198° South 257 296 8,700 -558 Descending FlightAware ADS-B
Fri 01:53:02 PM -22.5670 -43.5980 194° South 254 292 8,500 -1,067 Descending FlightAware ADS-B
Fri 01:53:28 PM -22.6040 -43.6110 198° South 247 284 7,900 -1,154 Descending FlightAware ADS-B
Fri 01:53:54 PM -22.6300 -43.6170 192° South 245 282 7,500 -915 Descending FlightAware ADS-B
Fri 01:54:27 PM -22.6650 -43.6220 188° South 243 280 7,000 -980 Descending FlightAware ADS-B
Fri 01:54:43 PM -22.6820 -43.6260 192° South 242 278 6,700 -900 Descending FlightAware ADS-B
Fri 01:55:07 PM -22.7010 -43.6310 194° South 240 276 6,400 -714 Descending FlightAware ADS-B
Fri 01:55:25 PM -22.7150 -43.6340 191° South 238 274 6,200 -1,300 Descending FlightAware ADS-B
Fri 01:56:07 PM -22.7870 -43.6380 183° South 228 262 5,100 -1,385 Descending FlightAware ADS-B
Fri 01:56:17 PM -22.7940 -43.6280 127° Southeast 223 257 5,000 -300 Descending FlightAware ADS-B
Fri 01:56:27 PM -22.7970 -43.6190 110° East 226 260 5,000  Level FlightAware ADS-B
Fri 01:56:32 PM -22.7970 -43.6130 90° East 228 262 5,000 -200 Level FlightAware ADS-B
Fri 01:56:57 PM -22.7860 -43.5870 65° Northeast 226 260 4,900 -400 Descending FlightAware ADS-B
Fri 01:57:17 PM -22.7740 -43.5690 54° Northeast 223 257 4,700 -600 Descending FlightAware ADS-B
Fri 01:57:37 PM -22.7620 -43.5510 54° Northeast 222 255 4,500 -240 Descending FlightAware ADS-B
Fri 01:58:07 PM -22.7450 -43.5240 56° Northeast 208 239 4,500  Level FlightAware ADS-B
Fri 01:58:22 PM -22.7370 -43.5120 54° Northeast 206 237 4,500  Level FlightAware ADS-B
Fri 01:58:42 PM -22.7270 -43.4950 57° Northeast 203 234 4,500  Level FlightAware ADS-B
Fri 01:59:02 PM -22.7160 -43.4770 56° Northeast 203 234 4,500 -343 Level FlightAware ADS-B
Fri 01:59:17 PM -22.7110 -43.4650 66° East 200 230 4,300 -1,200 Descending FlightAware ADS-B
Fri 01:59:22 PM -22.7110 -43.4590 90° East 200 230 4,100 -1,400 Descending FlightAware ADS-B
Fri 01:59:47 PM -22.7190 -43.4370 112° Southeast 202 232 3,600 -1,200 Descending FlightAware ADS-B
Fri 01:59:57 PM -22.7250 -43.4270 123° Southeast 203 234 3,400 -1,200 Descending FlightAware ADS-B
Fri 02:00:17 PM -22.7330 -43.4080 115° Southeast 203 234 3,000 -783 Descending FlightAware ADS-B
Fri 02:00:43 PM -22.7380 -43.3980 118° Southeast 204 235 2,800 -391 Descending FlightAware ADS-B
Fri 02:01:03 PM -22.7430 -43.3860 114° Southeast 202 232 2,700 -923 Descending FlightAware ADS-B
Fri 02:01:22 PM -22.7580 -43.3510 115° Southeast 181 208 2,200 -1,385 Descending FlightAware ADS-B
Fri 02:01:42 PM -22.7650 -43.3360 117° Southeast 172 198 1,800 -1,000 Descending FlightAware ADS-B
Fri 02:01:52 PM -22.7690 -43.3290 122° Southeast 166 191 1,700 -900 Descending FlightAware ADS-B
Fri 02:02:02 PM -22.7730 -43.3240 131° Southeast 161 185 1,500 -1,000 Descending FlightAware ADS-B
Fri 02:02:22 PM -22.7820 -43.3090 123° Southeast 160 184 1,200 -964 Descending FlightAware ADS-B
Fri 02:02:58 PM -22.7970 -43.2870 126° Southeast 151 174 600 -982 Descending FlightAware ADS-B
Fri 02:03:17 PM -22.8050 -43.2760 128° Southeast 143 165 300 -682 Descending FlightAware ADS-B
Fri 02:03:42 PM -22.8100 -43.2680 124° Southeast 140 161 100 -480 Descending FlightAware ADS-B
Fri 02:03:51 PM -22.8130 -43.2630 123° Southeast 139 160 -667 Descending FlightAware ADS-B
Fri 02:04:16 PM -22.8210 -43.2510 126° Southeast 139 160  Level FlightAware ADS-B
Fri 02:04:52 PM -22.8090 -43.2390 43° Northeast 146 168  Level FlightAware ADS-B
Fri 02:06:18 PM -22.8200 -43.2470 214° Southwest  Level FlightAware ADS-B

Login

Don't have an account? Register now (free) for customized features, flight alerts, and more!